Flight Track Log - Related Links

Times and Time Zones

All times are in EDT time to prevent confusion due to time zone crossing. See the SWA182 flight status page for this flight to view local times or setup timezone preferences in your user account.

Time Position Orientation Groundspeed Altitude Reporting Facility
EDT Latitude Longitude Course Direction KTS MPH feet Rate Location/Type
Thu 08:13:06 PM 29.5561 -98.4383 39° Northeast 164 189 2,200  Level Houston Center
Thu 08:13:22 PM 29.5681 -98.4286 35° Northeast 167 192 2,700 2,462 Climbing Houston Center
Thu 08:14:24 PM 29.6142 -98.3856 39° Northeast 214 246 5,400 2,565 Climbing Houston Center
Thu 08:15:26 PM 29.6706 -98.3564 24° Northeast 230 265 8,000 2,516 Climbing Houston Center
Thu 08:16:28 PM 29.7089 -98.4292 301° West 272 313 10,600 2,081 Climbing Houston Center
Thu 08:17:30 PM 29.7569 -98.5269 300° West 333 383 12,300 2,274 Climbing Houston Center
Thu 08:18:32 PM 29.8039 -98.6278 298° West 358 412 15,300 3,290 Climbing Houston Center
Thu 08:19:34 PM 29.8561 -98.7375 299° West 362 417 19,100 3,000 Climbing Houston Center
Thu 08:20:36 PM 29.9083 -98.8361 301° West 363 418 21,500 2,032 Climbing Houston Center
Thu 08:21:38 PM 29.9825 -98.9397 310° West 389 448 23,300 1,887 Climbing Houston Center
Thu 08:22:40 PM 30.0547 -99.0411 309° West 407 468 25,400 1,790 Climbing Houston Center
Thu 08:23:42 PM 30.1186 -99.1469 305° West 418 481 27,000 1,258 Climbing Houston Center
Thu 08:24:44 PM 30.1533 -99.2778 287° West 429 494 28,000 1,258 Climbing Houston Center
Thu 08:25:46 PM 30.1903 -99.4094 288° West 432 497 29,600 1,935 Climbing Houston Center
Thu 08:26:48 PM 30.2319 -99.5656 287° West 425 489 32,000 1,790 Climbing Houston Center
Thu 08:27:50 PM 30.2661 -99.6956 287° West 424 488 33,300 968 Climbing Houston Center
Thu 08:28:52 PM 30.3011 -99.8256 287° West 426 490 34,000 339 Climbing Houston Center
Thu 08:29:54 PM 30.3350 -99.9528 287° West 420 483 34,000  Level Houston Center
Thu 08:30:56 PM 30.3675 -100.0781 287° West 406 467 34,000 145 Level Houston Center
Thu 08:31:58 PM 30.4081 -100.2311 287° West 416 479 34,300 823 Climbing Houston Center
Thu 08:33:00 PM 30.4403 -100.3575 287° West 415 478 35,700 1,306 Climbing Houston Center
Thu 08:34:02 PM 30.4717 -100.4850 286° West 412 474 37,000 1,113 Climbing Houston Center
Thu 08:35:04 PM 30.5036 -100.6097 287° West 407 468 38,000 484 Climbing Houston Center
Thu 08:36:06 PM 30.5372 -100.7369 287° West 410 472 38,000  Level Houston Center
Thu 08:37:08 PM 30.5747 -100.8881 286° West 411 473 38,000  Level Houston Center
Thu 08:38:10 PM 30.6050 -101.0131 286° West 402 463 38,000  Level Houston Center
Thu 08:39:12 PM 30.6372 -101.1378 287° West 404 465 38,000  Level Houston Center
Thu 08:40:14 PM 30.6686 -101.2603 287° West 395 455 38,000  Level Houston Center
Thu 08:41:16 PM 30.6997 -101.3847 286° West 398 458 38,000  Level Houston Center
Thu 08:42:18 PM 30.7297 -101.5067 286° West 396 456 38,000  Level Houston Center
Thu 08:43:20 PM 30.7650 -101.6514 286° West 395 455 38,000  Level Houston Center
Thu 08:44:21 PM 30.7986 -101.7736 288° West 394 453 38,000  Level Houston Center
Thu 08:45:23 PM 30.8272 -101.8969 285° West 394 453 38,000  Level Houston Center
Thu 08:46:25 PM 30.8561 -102.0206 285° West 394 453 38,000  Level Houston Center
Thu 08:47:27 PM 30.8861 -102.1442 286° West 395 455 38,000  Level Houston Center
Thu 08:48:19 PM 30.9161 -102.2686 286° West 395 455 38,000  Level Albuquerque Center
Thu 08:49:20 PM 30.9461 -102.3922 286° West 395 455 38,000  Level Albuquerque Center
Thu 08:50:22 PM 30.9761 -102.5175 286° West 397 457 38,000  Level Albuquerque Center
Thu 08:51:24 PM 31.0053 -102.6428 285° West 397 457 38,000  Level Albuquerque Center
Thu 08:52:25 PM 31.0353 -102.7681 286° West 398 458 38,000  Level Albuquerque Center
Thu 08:53:27 PM 31.0644 -102.8922 285° West 398 458 38,000  Level Albuquerque Center
Thu 08:54:29 PM 31.0936 -103.0169 285° West 398 458 38,000  Level Albuquerque Center
Thu 08:55:30 PM 31.1231 -103.1419 285° West 398 458 38,000  Level Albuquerque Center
Thu 08:56:32 PM 31.1531 -103.2686 286° West 402 463 38,000  Level Albuquerque Center
Thu 08:57:33 PM 31.1942 -103.4144 288° West 397 457 38,000  Level Albuquerque Center
Thu 08:58:35 PM 31.2283 -103.5350 288° West 394 453 38,000  Level Albuquerque Center
Thu 08:59:37 PM 31.2622 -103.6564 288° West 394 453 38,000  Level Albuquerque Center
Thu 09:00:38 PM 31.2956 -103.7733 288° West 392 451 38,000  Level Albuquerque Center
Thu 09:01:40 PM 31.3308 -103.8939 289° West 394 453 38,000  Level Albuquerque Center
Thu 09:02:41 PM 31.3633 -104.0144 288° West 392 451 38,000  Level Albuquerque Center
Thu 09:03:43 PM 31.3961 -104.1350 288° West 391 450 38,000  Level Albuquerque Center
Thu 09:04:45 PM 31.4378 -104.2817 288° West 396 456 38,000  Level Albuquerque Center
Thu 09:05:46 PM 31.4714 -104.4031 288° West 396 456 38,000  Level Albuquerque Center
Thu 09:06:48 PM 31.5044 -104.5258 288° West 397 457 38,000  Level Albuquerque Center
Thu 09:07:49 PM 31.5381 -104.6472 288° West 396 456 38,000  Level Albuquerque Center
Thu 09:08:51 PM 31.5708 -104.7667 288° West 392 451 38,000  Level Albuquerque Center
Thu 09:09:53 PM 31.6036 -104.8867 288° West 389 448 38,000  Level Albuquerque Center
Thu 09:10:54 PM 31.6417 -105.0297 287° West 387 445 38,000  Level Albuquerque Center
Thu 09:11:56 PM 31.6747 -105.1472 288° West 383 441 38,000  Level Albuquerque Center
Thu 09:12:58 PM 31.7053 -105.2672 287° West 385 443 38,000  Level Albuquerque Center
Thu 09:13:59 PM 31.7369 -105.3883 287° West 390 449 38,000  Level Albuquerque Center
Thu 09:15:01 PM 31.7683 -105.5081 287° West 387 445 38,000  Level Albuquerque Center
Thu 09:16:02 PM 31.8003 -105.6278 287° West 387 445 38,000  Level Albuquerque Center
Thu 09:17:04 PM 31.8319 -105.7486 287° West 388 447 38,000  Level Albuquerque Center
Thu 09:18:05 PM 31.8697 -105.8925 287° West 387 445 38,000  Level Albuquerque Center
Thu 09:19:07 PM 31.8994 -106.0061 287° West 391 450 38,000  Level Albuquerque Center
Thu 09:20:09 PM 31.9319 -106.1297 287° West 395 455 38,000  Level Albuquerque Center
Thu 09:21:10 PM 31.9633 -106.2517 287° West 391 450 38,000  Level Albuquerque Center
Thu 09:22:12 PM 31.9950 -106.3742 287° West 391 450 38,000  Level Albuquerque Center
Thu 09:23:13 PM 32.0314 -106.5186 287° West 384 442 38,000  Level Albuquerque Center
Thu 09:24:15 PM 32.0628 -106.6397 287° West 385 443 38,000  Level Albuquerque Center
Thu 09:25:16 PM 32.0933 -106.7600 287° West 383 441 38,000  Level Albuquerque Center
Thu 09:26:18 PM 32.1239 -106.8814 287° West 385 443 38,000  Level Albuquerque Center
Thu 09:27:19 PM 32.1544 -107.0031 287° West 386 444 38,000  Level Albuquerque Center
Thu 09:28:21 PM 32.1883 -107.1381 287° West 387 445 38,000  Level Albuquerque Center
Thu 09:29:22 PM 32.2158 -107.2564 285° West 391 450 38,000  Level Albuquerque Center
Thu 09:30:23 PM 32.2450 -107.3808 286° West 395 455 38,000  Level Albuquerque Center
Thu 09:31:25 PM 32.2758 -107.5019 287° West 392 451 38,000  Level Albuquerque Center
Thu 09:32:26 PM 32.3056 -107.6228 286° West 388 447 38,000  Level Albuquerque Center
Thu 09:33:28 PM 32.3356 -107.7478 286° West 391 450 38,000  Level Albuquerque Center
Thu 09:34:29 PM 32.3714 -107.8961 286° West 392 451 38,000  Level Albuquerque Center
Thu 09:35:31 PM 32.4014 -108.0206 286° West 394 453 38,000  Level Albuquerque Center
Thu 09:36:32 PM 32.4317 -108.1456 286° West 394 453 38,000  Level Albuquerque Center
Thu 09:37:33 PM 32.4606 -108.2625 286° West 392 451 38,000  Level Albuquerque Center
Thu 09:38:35 PM 32.4889 -108.3864 285° West 392 451 38,000  Level Albuquerque Center
Thu 09:39:36 PM 32.5169 -108.5089 285° West 389 448 38,000  Level Albuquerque Center
Thu 09:40:38 PM 32.5467 -108.6317 286° West 389 448 38,000  Level Albuquerque Center
Thu 09:41:39 PM 32.5817 -108.7803 286° West 391 450 38,000  Level Albuquerque Center
Thu 09:42:40 PM 32.6108 -108.9061 285° West 395 455 38,000  Level Albuquerque Center
Thu 09:43:42 PM 32.6392 -109.0314 285° West 394 453 38,000  Level Albuquerque Center
Thu 09:44:43 PM 32.6681 -109.1572 285° West 395 455 38,000  Level Albuquerque Center
Thu 09:45:44 PM 32.6972 -109.2808 286° West 393 452 38,000  Level Albuquerque Center
Thu 09:46:46 PM 32.7253 -109.4044 285° West 390 449 38,000  Level Albuquerque Center
Thu 09:47:47 PM 32.7531 -109.5269 285° West 388 447 38,000  Level Albuquerque Center
Thu 09:48:48 PM 32.7828 -109.6503 286° West 396 456 38,000  Level Albuquerque Center
Thu 09:49:50 PM 32.8136 -109.7983 284° West 391 450 38,000  Level Albuquerque Center
Thu 09:50:51 PM 32.8425 -109.9214 286° West 390 449 38,000  Level Albuquerque Center
Thu 09:51:52 PM 32.8703 -110.0461 285° West 393 452 38,000  Level Albuquerque Center
Thu 09:52:54 PM 32.8997 -110.1708 286° West 394 453 38,000  Level Albuquerque Center
Thu 09:53:55 PM 32.9275 -110.2939 285° West 392 451 38,000  Level Albuquerque Center
Thu 09:54:56 PM 32.9544 -110.4183 285° West 391 450 38,000  Level Albuquerque Center
Thu 09:55:57 PM 32.9808 -110.5408 284° West 389 448 38,000  Level Albuquerque Center
Thu 09:56:59 PM 33.0072 -110.6647 284° West 388 447 38,000  Level Albuquerque Center
Thu 09:58:00 PM 33.0358 -110.7914 285° West 389 448 38,000  Level Albuquerque Center
Thu 09:59:02 PM 33.0683 -110.9436 284° West 393 452 38,000  Level Albuquerque Center
Thu 10:00:03 PM 33.0944 -111.0692 284° West 391 450 38,000  Level Albuquerque Center
Thu 10:01:04 PM 33.1217 -111.1947 285° West 390 449 38,000  Level Albuquerque Center
Thu 10:02:06 PM 33.1492 -111.3239 284° West 399 459 38,000  Level Albuquerque Center
Thu 10:03:07 PM 33.1753 -111.4519 284° West 398 458 38,000  Level Albuquerque Center
Thu 10:04:09 PM 33.2022 -111.5803 284° West 399 459 38,000  Level Albuquerque Center
Thu 10:05:10 PM 33.2286 -111.7097 284° West 399 459 38,000  Level Albuquerque Center
Thu 10:06:12 PM 33.2558 -111.8386 284° West 400 460 38,000  Level Albuquerque Center
Thu 10:07:13 PM 33.2822 -111.9681 284° West 400 460 38,000  Level Albuquerque Center
Thu 10:08:14 PM 33.3081 -112.0958 284° West 397 457 38,000  Level Albuquerque Center
Thu 10:09:15 PM 33.3394 -112.2500 284° West 396 456 38,000  Level Albuquerque Center
Thu 10:10:17 PM 33.3644 -112.3806 283° West 399 459 38,000  Level Albuquerque Center
Thu 10:11:18 PM 33.3908 -112.5089 284° West 397 457 38,000  Level Albuquerque Center
Thu 10:12:19 PM 33.4158 -112.6342 283° West 396 456 38,000  Level Albuquerque Center
Thu 10:13:21 PM 33.4406 -112.7611 283° West 395 455 38,000  Level Albuquerque Center
Thu 10:14:22 PM 33.4758 -112.8875 289° West 402 463 38,000  Level Albuquerque Center
Thu 10:15:23 PM 33.5189 -113.0069 293° West 398 458 38,000  Level Albuquerque Center
Thu 10:16:25 PM 33.5617 -113.1278 293° West 397 457 38,000  Level Albuquerque Center
Thu 10:17:26 PM 33.6133 -113.2728 293° West 396 456 38,000  Level Albuquerque Center
Thu 10:18:27 PM 33.6503 -113.3769 293° West 396 456 38,000  Level Albuquerque Center
Thu 10:19:29 PM 33.7019 -113.5236 293° West 398 458 38,000  Level Albuquerque Center
Thu 10:20:30 PM 33.7456 -113.6453 293° West 396 456 38,000  Level Albuquerque Center
Thu 10:21:31 PM 33.7867 -113.7692 292° West 399 459 38,000  Level Albuquerque Center
Thu 10:22:33 PM 33.8314 -113.8914 294° West 399 459 38,000  Level Albuquerque Center
Thu 10:23:34 PM 33.8728 -114.0150 292° West 399 459 38,000  Level Albuquerque Center
Thu 10:24:34 PM 33.8964 -114.1483 282° West 400 460 38,000  Level Los Angeles Center
Thu 10:25:36 PM 33.9139 -114.2767 279° West 393 452 38,000  Level Los Angeles Center
Thu 10:26:38 PM 33.9319 -114.4064 280° West 394 453 38,000  Level Los Angeles Center
Thu 10:27:40 PM 33.9503 -114.5356 280° West 392 451 38,000  Level Los Angeles Center
Thu 10:28:43 PM 33.9706 -114.6900 279° West 391 450 38,000  Level Los Angeles Center
Thu 10:29:45 PM 33.9881 -114.8186 279° West 392 451 38,000  Level Los Angeles Center
Thu 10:30:47 PM 34.0050 -114.9472 279° West 390 449 38,000  Level Los Angeles Center
Thu 10:31:49 PM 34.0228 -115.0775 279° West 394 453 38,000  Level Los Angeles Center
Thu 10:32:51 PM 34.0400 -115.2072 279° West 394 453 38,000  Level Los Angeles Center
Thu 10:33:53 PM 34.0603 -115.3647 279° West 397 457 38,000  Level Los Angeles Center
Thu 10:34:56 PM 34.0778 -115.4958 279° West 397 457 38,000  Level Los Angeles Center
Thu 10:35:58 PM 34.0947 -115.6275 279° West 399 459 38,000  Level Los Angeles Center
Thu 10:37:00 PM 34.1106 -115.7597 278° West 399 459 38,000 -49 Level Los Angeles Center
Thu 10:38:01 PM 34.0939 -115.8925 261° West 401 461 37,900 -1,073 Descending Los Angeles Center
Thu 10:39:03 PM 34.0753 -116.0206 260° West 393 452 35,800 -2,710 Descending Los Angeles Center
Thu 10:40:05 PM 34.0522 -116.1772 260° West 397 457 32,300 -2,226 Descending Los Angeles Center
Thu 10:41:07 PM 34.0308 -116.3136 259° West 412 474 31,200 -1,951 Descending Los Angeles Center
Thu 10:42:08 PM 34.0103 -116.4519 260° West 421 484 28,300 -2,732 Descending Los Angeles Center
Thu 10:43:10 PM 33.9967 -116.5992 264° West 440 506 25,600 -2,565 Descending Los Angeles Center
Thu 10:44:12 PM 33.9853 -116.7392 264° West 427 491 23,000 -2,636 Descending Los Angeles Center
Thu 10:45:22 PM 33.9667 -116.9167 263° West 397 457 19,800 -2,585 Descending Southern California TRACON
Thu 10:46:22 PM 33.9667 -117.0500 270° West 392 451 17,400 -1,800 Descending Southern California TRACON
Thu 10:47:22 PM 33.9500 -117.1833 261° West 385 443 16,200 -1,600 Descending Southern California TRACON
Thu 10:48:22 PM 33.9333 -117.3167 261° West 398 458 14,200 -1,750 Descending Southern California TRACON
Thu 10:49:22 PM 33.9500 -117.4333 280° West 388 447 12,700 -1,200 Descending Southern California TRACON
Thu 10:50:22 PM 34.0000 -117.5500 297° West 353 406 11,800 -950 Descending Southern California TRACON
Thu 10:51:22 PM 34.0167 -117.6500 281° West 313 360 10,800 -1,200 Descending Southern California TRACON
Thu 10:52:22 PM 34.0167 -117.7500 270° West 300 345 9,400 -1,450 Descending Southern California TRACON
Thu 10:53:22 PM 34.0000 -117.8500 259° West 294 338 7,900 -1,350 Descending Southern California TRACON
Thu 10:54:22 PM 34.0000 -117.9500 270° West 281 323 6,700 -1,091 Descending Southern California TRACON
Thu 10:55:23 PM 33.9833 -118.0333 256° West 277 319 5,700 -1,091 Descending Southern California TRACON
Thu 10:56:23 PM 33.9833 -118.1167 270° West 263 303 4,500 -1,024 Descending Southern California TRACON
Thu 10:56:45 PM 33.9792 -118.1411 258° West 273 314 4,300 -1,059 Descending Los Angeles Center
Thu 10:57:48 PM 33.9706 -118.2244 263° West 221 254 3,000 -1,113 Descending Los Angeles Center
Thu 10:58:49 PM 33.9644 -118.2867 263° West 197 227 2,000 -878 Descending Los Angeles Center
Thu 10:59:51 PM 33.9589 -118.3353 262° West 167 192 1,200 -677 Descending Los Angeles Center
Thu 11:00:53 PM 33.9561 -118.3789 266° West 142 163 600 -532 Descending Los Angeles Center
Thu 11:01:55 PM 33.9503 -118.4281 262° West 137 158 100 -484 Descending Los Angeles Center
Thu 11:03:00 PM 33.9425 -118.4081 140° Southeast  Level Estimated
Thu 11:10:00 PM 33.9425 -118.4081 140° Southeast  Level Estimated

Login

Don't have an account? Register now (free) for customized features, flight alerts, and more!